sensor_id;sensor_type;location;lat;lon;timestamp;temperature;humidity
42097;DHT22;27754;45.414;11.084;2022-11-09T00:00:48;11.10;87.20
42097;DHT22;27754;45.414;11.084;2022-11-09T00:03:15;11.20;87.20
42097;DHT22;27754;45.414;11.084;2022-11-09T00:05:42;11.20;87.10
42097;DHT22;27754;45.414;11.084;2022-11-09T00:08:10;11.20;87.10
42097;DHT22;27754;45.414;11.084;2022-11-09T00:10:37;11.30;87.10
42097;DHT22;27754;45.414;11.084;2022-11-09T00:13:05;11.30;87.10
42097;DHT22;27754;45.414;11.084;2022-11-09T00:15:31;11.30;86.90
42097;DHT22;27754;45.414;11.084;2022-11-09T00:18:01;11.30;86.90
42097;DHT22;27754;45.414;11.084;2022-11-09T00:20:28;11.30;86.60
42097;DHT22;27754;45.414;11.084;2022-11-09T00:22:55;11.30;86.50
42097;DHT22;27754;45.414;11.084;2022-11-09T00:25:23;11.30;86.50
42097;DHT22;27754;45.414;11.084;2022-11-09T00:27:50;11.30;86.40
42097;DHT22;27754;45.414;11.084;2022-11-09T00:30:17;11.30;86.40
42097;DHT22;27754;45.414;11.084;2022-11-09T00:32:46;11.30;86.50
42097;DHT22;27754;45.414;11.084;2022-11-09T00:35:13;11.20;86.60
42097;DHT22;27754;45.414;11.084;2022-11-09T00:37:40;11.20;86.70
42097;DHT22;27754;45.414;11.084;2022-11-09T00:40:09;11.20;86.70
42097;DHT22;27754;45.414;11.084;2022-11-09T00:42:36;11.10;86.50
42097;DHT22;27754;45.414;11.084;2022-11-09T00:45:04;11.10;86.60
42097;DHT22;27754;45.414;11.084;2022-11-09T00:47:32;11.10;86.70
42097;DHT22;27754;45.414;11.084;2022-11-09T00:49:59;11.00;86.70
42097;DHT22;27754;45.414;11.084;2022-11-09T00:52:25;11.00;86.70
42097;DHT22;27754;45.414;11.084;2022-11-09T00:54:53;11.00;86.60
42097;DHT22;27754;45.414;11.084;2022-11-09T00:57:20;11.10;86.50
42097;DHT22;27754;45.414;11.084;2022-11-09T00:59:47;11.10;86.60
42097;DHT22;27754;45.414;11.084;2022-11-09T01:02:14;11.10;86.30
42097;DHT22;27754;45.414;11.084;2022-11-09T01:04:41;11.10;86.30
42097;DHT22;27754;45.414;11.084;2022-11-09T01:07:08;11.10;86.50
42097;DHT22;27754;45.414;11.084;2022-11-09T01:09:36;11.10;86.50
42097;DHT22;27754;45.414;11.084;2022-11-09T01:12:03;11.10;86.60
42097;DHT22;27754;45.414;11.084;2022-11-09T01:14:30;11.10;86.70
42097;DHT22;27754;45.414;11.084;2022-11-09T01:16:57;11.00;86.90
42097;DHT22;27754;45.414;11.084;2022-11-09T01:19:25;10.90;87.00
42097;DHT22;27754;45.414;11.084;2022-11-09T01:21:52;10.90;87.00
42097;DHT22;27754;45.414;11.084;2022-11-09T01:24:19;10.90;87.10
42097;DHT22;27754;45.414;11.084;2022-11-09T01:26:46;10.90;87.20
42097;DHT22;27754;45.414;11.084;2022-11-09T01:29:13;10.90;87.20
42097;DHT22;27754;45.414;11.084;2022-11-09T01:31:40;10.90;86.80
42097;DHT22;27754;45.414;11.084;2022-11-09T01:34:07;10.90;86.80
42097;DHT22;27754;45.414;11.084;2022-11-09T01:36:34;11.00;86.90
42097;DHT22;27754;45.414;11.084;2022-11-09T01:39:01;11.00;87.00
42097;DHT22;27754;45.414;11.084;2022-11-09T01:41:28;11.00;87.00
42097;DHT22;27754;45.414;11.084;2022-11-09T01:44:13;11.00;87.10
42097;DHT22;27754;45.414;11.084;2022-11-09T01:46:50;11.10;87.10
42097;DHT22;27754;45.414;11.084;2022-11-09T01:49:42;11.10;87.10
42097;DHT22;27754;45.414;11.084;2022-11-09T01:52:36;11.10;87.10
42097;DHT22;27754;45.414;11.084;2022-11-09T01:55:09;11.10;87.00
42097;DHT22;27754;45.414;11.084;2022-11-09T01:57:58;11.10;87.00
42097;DHT22;27754;45.414;11.084;2022-11-09T02:00:26;11.10;87.20
42097;DHT22;27754;45.414;11.084;2022-11-09T02:03:08;11.10;87.20
42097;DHT22;27754;45.414;11.084;2022-11-09T02:05:38;11.10;87.10
42097;DHT22;27754;45.414;11.084;2022-11-09T02:08:09;11.00;87.10
42097;DHT22;27754;45.414;11.084;2022-11-09T02:10:44;11.00;87.30
42097;DHT22;27754;45.414;11.084;2022-11-09T02:13:15;11.00;87.40
42097;DHT22;27754;45.414;11.084;2022-11-09T02:15:44;11.10;87.30
42097;DHT22;27754;45.414;11.084;2022-11-09T02:18:12;11.20;87.30
42097;DHT22;27754;45.414;11.084;2022-11-09T02:20:51;11.20;87.20
42097;DHT22;27754;45.414;11.084;2022-11-09T02:23:21;11.10;87.20
42097;DHT22;27754;45.414;11.084;2022-11-09T02:26:03;11.20;87.30
42097;DHT22;27754;45.414;11.084;2022-11-09T02:28:34;11.20;87.40
42097;DHT22;27754;45.414;11.084;2022-11-09T02:31:04;11.20;87.30
42097;DHT22;27754;45.414;11.084;2022-11-09T02:33:52;11.20;87.30
42097;DHT22;27754;45.414;11.084;2022-11-09T02:36:22;11.10;87.80
42097;DHT22;27754;45.414;11.084;2022-11-09T02:38:51;11.10;87.80
42097;DHT22;27754;45.414;11.084;2022-11-09T02:41:19;11.10;87.80
42097;DHT22;27754;45.414;11.084;2022-11-09T02:43:51;11.10;87.90
42097;DHT22;27754;45.414;11.084;2022-11-09T02:46:24;11.10;87.80
42097;DHT22;27754;45.414;11.084;2022-11-09T02:48:55;11.10;87.90
42097;DHT22;27754;45.414;11.084;2022-11-09T02:51:22;11.00;88.30
42097;DHT22;27754;45.414;11.084;2022-11-09T02:53:49;10.90;88.50
42097;DHT22;27754;45.414;11.084;2022-11-09T02:56:17;10.90;88.50
42097;DHT22;27754;45.414;11.084;2022-11-09T02:58:44;10.90;88.50
42097;DHT22;27754;45.414;11.084;2022-11-09T03:01:11;10.90;88.60
42097;DHT22;27754;45.414;11.084;2022-11-09T03:03:38;11.00;88.70
42097;DHT22;27754;45.414;11.084;2022-11-09T03:06:05;11.00;88.50
42097;DHT22;27754;45.414;11.084;2022-11-09T03:08:33;11.00;88.50
42097;DHT22;27754;45.414;11.084;2022-11-09T03:11:00;11.00;88.50
42097;DHT22;27754;45.414;11.084;2022-11-09T03:13:28;11.00;88.40
42097;DHT22;27754;45.414;11.084;2022-11-09T03:15:55;11.00;88.30
42097;DHT22;27754;45.414;11.084;2022-11-09T03:18:22;11.00;88.30
42097;DHT22;27754;45.414;11.084;2022-11-09T03:20:49;11.10;88.20
42097;DHT22;27754;45.414;11.084;2022-11-09T03:23:16;11.00;88.20
42097;DHT22;27754;45.414;11.084;2022-11-09T03:25:44;11.00;88.20
42097;DHT22;27754;45.414;11.084;2022-11-09T03:28:11;11.10;88.10
42097;DHT22;27754;45.414;11.084;2022-11-09T03:30:39;11.00;88.00
42097;DHT22;27754;45.414;11.084;2022-11-09T03:33:07;11.10;88.00
42097;DHT22;27754;45.414;11.084;2022-11-09T03:35:37;11.10;88.00
42097;DHT22;27754;45.414;11.084;2022-11-09T03:38:04;11.10;88.00
42097;DHT22;27754;45.414;11.084;2022-11-09T03:40:31;11.10;88.20
42097;DHT22;27754;45.414;11.084;2022-11-09T03:42:58;11.10;88.00
42097;DHT22;27754;45.414;11.084;2022-11-09T03:45:25;11.10;88.30
42097;DHT22;27754;45.414;11.084;2022-11-09T03:47:53;11.10;88.30
42097;DHT22;27754;45.414;11.084;2022-11-09T03:50:27;11.10;88.30
42097;DHT22;27754;45.414;11.084;2022-11-09T03:52:54;11.10;88.30
42097;DHT22;27754;45.414;11.084;2022-11-09T03:55:21;11.10;88.30
42097;DHT22;27754;45.414;11.084;2022-11-09T03:57:49;11.10;88.20
42097;DHT22;27754;45.414;11.084;2022-11-09T04:00:18;11.10;88.20
42097;DHT22;27754;45.414;11.084;2022-11-09T04:02:46;11.10;88.20
42097;DHT22;27754;45.414;11.084;2022-11-09T04:05:13;11.10;88.30
42097;DHT22;27754;45.414;11.084;2022-11-09T04:07:46;11.20;88.40
42097;DHT22;27754;45.414;11.084;2022-11-09T04:10:13;11.20;88.20
42097;DHT22;27754;45.414;11.084;2022-11-09T04:12:40;11.20;88.10
42097;DHT22;27754;45.414;11.084;2022-11-09T04:15:08;11.20;88.10
42097;DHT22;27754;45.414;11.084;2022-11-09T04:17:35;11.20;88.30
42097;DHT22;27754;45.414;11.084;2022-11-09T04:20:02;11.20;88.40
42097;DHT22;27754;45.414;11.084;2022-11-09T04:22:29;11.20;88.40
42097;DHT22;27754;45.414;11.084;2022-11-09T04:24:56;11.20;88.50
42097;DHT22;27754;45.414;11.084;2022-11-09T04:27:23;11.20;88.70
42097;DHT22;27754;45.414;11.084;2022-11-09T04:29:50;11.20;88.70
42097;DHT22;27754;45.414;11.084;2022-11-09T04:32:17;11.20;88.70
42097;DHT22;27754;45.414;11.084;2022-11-09T04:34:44;11.30;88.80
42097;DHT22;27754;45.414;11.084;2022-11-09T04:37:11;11.30;88.50
42097;DHT22;27754;45.414;11.084;2022-11-09T04:39:38;11.20;88.40
42097;DHT22;27754;45.414;11.084;2022-11-09T04:42:05;11.30;88.40
42097;DHT22;27754;45.414;11.084;2022-11-09T04:44:32;11.30;88.40
42097;DHT22;27754;45.414;11.084;2022-11-09T04:46:59;11.30;88.50
42097;DHT22;27754;45.414;11.084;2022-11-09T04:49:26;11.30;88.60
42097;DHT22;27754;45.414;11.084;2022-11-09T04:51:53;11.30;88.80
42097;DHT22;27754;45.414;11.084;2022-11-09T04:54:19;11.30;88.80
42097;DHT22;27754;45.414;11.084;2022-11-09T04:56:46;11.40;88.80
42097;DHT22;27754;45.414;11.084;2022-11-09T04:59:13;11.30;88.80
42097;DHT22;27754;45.414;11.084;2022-11-09T05:01:40;11.40;88.60
42097;DHT22;27754;45.414;11.084;2022-11-09T05:04:07;11.40;88.60
42097;DHT22;27754;45.414;11.084;2022-11-09T05:06:34;11.40;88.50
42097;DHT22;27754;45.414;11.084;2022-11-09T05:09:05;11.40;88.40
42097;DHT22;27754;45.414;11.084;2022-11-09T05:11:34;11.50;88.00
42097;DHT22;27754;45.414;11.084;2022-11-09T05:14:02;11.40;88.00
42097;DHT22;27754;45.414;11.084;2022-11-09T05:16:29;11.50;87.80
42097;DHT22;27754;45.414;11.084;2022-11-09T05:18:56;11.50;88.00
42097;DHT22;27754;45.414;11.084;2022-11-09T05:21:23;11.60;88.10
42097;DHT22;27754;45.414;11.084;2022-11-09T05:23:50;11.60;88.00
42097;DHT22;27754;45.414;11.084;2022-11-09T05:26:35;11.60;88.20
42097;DHT22;27754;45.414;11.084;2022-11-09T05:29:05;11.50;88.30
42097;DHT22;27754;45.414;11.084;2022-11-09T05:31:33;11.50;88.50
42097;DHT22;27754;45.414;11.084;2022-11-09T05:34:01;11.50;88.30
42097;DHT22;27754;45.414;11.084;2022-11-09T05:36:29;11.40;88.50
42097;DHT22;27754;45.414;11.084;2022-11-09T05:38:57;11.50;88.60
42097;DHT22;27754;45.414;11.084;2022-11-09T05:41:24;11.50;88.70
42097;DHT22;27754;45.414;11.084;2022-11-09T05:43:51;11.50;88.70
42097;DHT22;27754;45.414;11.084;2022-11-09T05:46:18;11.50;88.60
42097;DHT22;27754;45.414;11.084;2022-11-09T05:48:46;11.40;88.50
42097;DHT22;27754;45.414;11.084;2022-11-09T05:51:13;11.40;88.60
42097;DHT22;27754;45.414;11.084;2022-11-09T05:53:41;11.50;88.60
42097;DHT22;27754;45.414;11.084;2022-11-09T05:56:13;11.50;88.70
42097;DHT22;27754;45.414;11.084;2022-11-09T05:58:40;11.50;88.70
42097;DHT22;27754;45.414;11.084;2022-11-09T06:01:12;11.50;88.70
42097;DHT22;27754;45.414;11.084;2022-11-09T06:03:40;11.50;88.70
42097;DHT22;27754;45.414;11.084;2022-11-09T06:06:11;11.50;88.90
42097;DHT22;27754;45.414;11.084;2022-11-09T06:08:39;11.50;88.80
42097;DHT22;27754;45.414;11.084;2022-11-09T06:11:09;11.50;89.00
42097;DHT22;27754;45.414;11.084;2022-11-09T06:13:37;11.50;89.00
42097;DHT22;27754;45.414;11.084;2022-11-09T06:16:05;11.60;89.00
42097;DHT22;27754;45.414;11.084;2022-11-09T06:18:34;11.60;88.90
42097;DHT22;27754;45.414;11.084;2022-11-09T06:21:03;11.60;88.90
42097;DHT22;27754;45.414;11.084;2022-11-09T06:23:30;11.60;88.90
42097;DHT22;27754;45.414;11.084;2022-11-09T06:26:00;11.60;88.90
42097;DHT22;27754;45.414;11.084;2022-11-09T06:28:27;11.60;88.80
42097;DHT22;27754;45.414;11.084;2022-11-09T06:30:59;11.60;88.70
42097;DHT22;27754;45.414;11.084;2022-11-09T06:33:29;11.60;88.80
42097;DHT22;27754;45.414;11.084;2022-11-09T06:35:57;11.70;88.80
42097;DHT22;27754;45.414;11.084;2022-11-09T06:38:25;11.70;88.80
42097;DHT22;27754;45.414;11.084;2022-11-09T06:40:55;11.70;88.90
42097;DHT22;27754;45.414;11.084;2022-11-09T06:43:23;11.70;88.60
42097;DHT22;27754;45.414;11.084;2022-11-09T06:45:51;11.70;88.40
42097;DHT22;27754;45.414;11.084;2022-11-09T06:48:18;11.70;88.30
42097;DHT22;27754;45.414;11.084;2022-11-09T06:50:45;11.70;88.10
42097;DHT22;27754;45.414;11.084;2022-11-09T06:53:14;11.80;88.00
42097;DHT22;27754;45.414;11.084;2022-11-09T06:55:41;11.80;88.00
42097;DHT22;27754;45.414;11.084;2022-11-09T06:58:16;11.80;87.80
42097;DHT22;27754;45.414;11.084;2022-11-09T07:00:43;11.80;87.90
42097;DHT22;27754;45.414;11.084;2022-11-09T07:03:15;11.80;87.90
42097;DHT22;27754;45.414;11.084;2022-11-09T07:05:43;11.90;87.80
42097;DHT22;27754;45.414;11.084;2022-11-09T07:08:11;11.90;87.60
42097;DHT22;27754;45.414;11.084;2022-11-09T07:10:38;11.90;87.50
42097;DHT22;27754;45.414;11.084;2022-11-09T07:13:05;11.90;87.30
42097;DHT22;27754;45.414;11.084;2022-11-09T07:15:33;12.00;87.20
42097;DHT22;27754;45.414;11.084;2022-11-09T07:18:02;12.00;87.00
42097;DHT22;27754;45.414;11.084;2022-11-09T07:20:29;12.00;86.90
42097;DHT22;27754;45.414;11.084;2022-11-09T07:22:56;12.10;86.90
42097;DHT22;27754;45.414;11.084;2022-11-09T07:25:24;12.10;87.00
42097;DHT22;27754;45.414;11.084;2022-11-09T07:27:53;12.10;87.00
42097;DHT22;27754;45.414;11.084;2022-11-09T07:30:20;12.20;87.10
42097;DHT22;27754;45.414;11.084;2022-11-09T07:32:47;12.20;87.20
42097;DHT22;27754;45.414;11.084;2022-11-09T07:35:34;12.30;87.30
42097;DHT22;27754;45.414;11.084;2022-11-09T07:38:01;12.30;87.30
42097;DHT22;27754;45.414;11.084;2022-11-09T07:40:29;12.20;87.20
42097;DHT22;27754;45.414;11.084;2022-11-09T07:43:04;12.30;87.10
42097;DHT22;27754;45.414;11.084;2022-11-09T07:45:33;12.30;86.90
42097;DHT22;27754;45.414;11.084;2022-11-09T07:48:06;12.40;86.80
42097;DHT22;27754;45.414;11.084;2022-11-09T07:50:34;12.40;86.80
42097;DHT22;27754;45.414;11.084;2022-11-09T07:53:01;12.40;86.70
42097;DHT22;27754;45.414;11.084;2022-11-09T07:55:29;12.40;86.50
42097;DHT22;27754;45.414;11.084;2022-11-09T07:57:57;12.40;86.30
42097;DHT22;27754;45.414;11.084;2022-11-09T08:00:26;12.40;86.10
42097;DHT22;27754;45.414;11.084;2022-11-09T08:02:53;12.40;85.90
42097;DHT22;27754;45.414;11.084;2022-11-09T08:05:20;12.40;85.70
42097;DHT22;27754;45.414;11.084;2022-11-09T08:07:47;12.40;85.60
42097;DHT22;27754;45.414;11.084;2022-11-09T08:10:14;12.40;85.50
42097;DHT22;27754;45.414;11.084;2022-11-09T08:12:41;12.50;85.40
42097;DHT22;27754;45.414;11.084;2022-11-09T08:15:09;12.50;85.30
42097;DHT22;27754;45.414;11.084;2022-11-09T08:17:36;12.50;85.60
42097;DHT22;27754;45.414;11.084;2022-11-09T08:20:03;12.60;85.70
42097;DHT22;27754;45.414;11.084;2022-11-09T08:22:30;12.60;85.70
42097;DHT22;27754;45.414;11.084;2022-11-09T08:24:57;12.60;85.60
42097;DHT22;27754;45.414;11.084;2022-11-09T08:27:24;12.70;85.50
42097;DHT22;27754;45.414;11.084;2022-11-09T08:29:51;12.70;85.20
42097;DHT22;27754;45.414;11.084;2022-11-09T08:32:17;12.80;85.10
42097;DHT22;27754;45.414;11.084;2022-11-09T08:34:47;12.70;85.00
42097;DHT22;27754;45.414;11.084;2022-11-09T08:37:14;12.70;85.00
42097;DHT22;27754;45.414;11.084;2022-11-09T08:39:42;12.80;85.10
42097;DHT22;27754;45.414;11.084;2022-11-09T08:42:09;12.80;84.50
42097;DHT22;27754;45.414;11.084;2022-11-09T08:44:36;12.70;85.10
42097;DHT22;27754;45.414;11.084;2022-11-09T08:47:03;12.80;85.60
42097;DHT22;27754;45.414;11.084;2022-11-09T08:49:30;12.80;85.70
42097;DHT22;27754;45.414;11.084;2022-11-09T08:51:58;12.80;85.70
42097;DHT22;27754;45.414;11.084;2022-11-09T08:54:25;12.70;85.80
42097;DHT22;27754;45.414;11.084;2022-11-09T08:56:55;12.70;85.90
42097;DHT22;27754;45.414;11.084;2022-11-09T08:59:22;12.70;85.60
42097;DHT22;27754;45.414;11.084;2022-11-09T09:01:49;12.70;85.80
42097;DHT22;27754;45.414;11.084;2022-11-09T09:04:16;12.80;85.90
42097;DHT22;27754;45.414;11.084;2022-11-09T09:06:43;12.90;85.40
42097;DHT22;27754;45.414;11.084;2022-11-09T09:09:10;13.00;84.90
42097;DHT22;27754;45.414;11.084;2022-11-09T09:11:37;13.00;84.70
42097;DHT22;27754;45.414;11.084;2022-11-09T09:14:04;13.20;84.20
42097;DHT22;27754;45.414;11.084;2022-11-09T09:16:31;13.10;84.20
42097;DHT22;27754;45.414;11.084;2022-11-09T09:18:58;13.20;84.40
42097;DHT22;27754;45.414;11.084;2022-11-09T09:21:25;13.30;84.40
42097;DHT22;27754;45.414;11.084;2022-11-09T09:23:53;13.40;83.80
42097;DHT22;27754;45.414;11.084;2022-11-09T09:26:20;13.30;83.70
42097;DHT22;27754;45.414;11.084;2022-11-09T09:28:47;13.40;84.10
42097;DHT22;27754;45.414;11.084;2022-11-09T09:31:14;13.40;83.90
42097;DHT22;27754;45.414;11.084;2022-11-09T09:33:44;13.50;83.70
42097;DHT22;27754;45.414;11.084;2022-11-09T09:36:20;13.50;83.90
42097;DHT22;27754;45.414;11.084;2022-11-09T09:38:51;13.60;83.70
42097;DHT22;27754;45.414;11.084;2022-11-09T09:41:27;13.60;83.40
42097;DHT22;27754;45.414;11.084;2022-11-09T09:44:00;13.60;82.90
42097;DHT22;27754;45.414;11.084;2022-11-09T09:46:39;13.70;83.00
42097;DHT22;27754;45.414;11.084;2022-11-09T09:49:28;13.60;83.20
42097;DHT22;27754;45.414;11.084;2022-11-09T09:52:11;13.60;83.50
42097;DHT22;27754;45.414;11.084;2022-11-09T09:55:06;13.60;83.70
42097;DHT22;27754;45.414;11.084;2022-11-09T09:57:30;13.60;83.80
42097;DHT22;27754;45.414;11.084;2022-11-09T10:00:06;13.60;83.80
42097;DHT22;27754;45.414;11.084;2022-11-09T10:02:37;13.60;84.20
42097;DHT22;27754;45.414;11.084;2022-11-09T10:05:10;13.60;83.90
42097;DHT22;27754;45.414;11.084;2022-11-09T10:07:42;13.60;83.60
42097;DHT22;27754;45.414;11.084;2022-11-09T10:16:22;13.40;83.50
42097;DHT22;27754;45.414;11.084;2022-11-09T10:27:38;13.30;84.00
42097;DHT22;27754;45.414;11.084;2022-11-09T10:29:40;13.30;84.40
42097;DHT22;27754;45.414;11.084;2022-11-09T10:32:19;13.30;84.90
42097;DHT22;27754;45.414;11.084;2022-11-09T10:35:36;13.30;85.90
42097;DHT22;27754;45.414;11.084;2022-11-09T10:43:01;13.30;85.80
42097;DHT22;27754;45.414;11.084;2022-11-09T10:46:04;13.40;86.20
42097;DHT22;27754;45.414;11.084;2022-11-09T10:48:52;13.40;86.00
42097;DHT22;27754;45.414;11.084;2022-11-09T10:51:43;13.40;86.10
42097;DHT22;27754;45.414;11.084;2022-11-09T10:54:32;13.40;86.00
42097;DHT22;27754;45.414;11.084;2022-11-09T10:57:21;13.50;86.00
42097;DHT22;27754;45.414;11.084;2022-11-09T11:00:15;13.50;85.90
42097;DHT22;27754;45.414;11.084;2022-11-09T11:03:17;13.60;86.70
42097;DHT22;27754;45.414;11.084;2022-11-09T11:06:17;13.70;86.70
42097;DHT22;27754;45.414;11.084;2022-11-09T11:12:18;13.90;86.60
42097;DHT22;27754;45.414;11.084;2022-11-09T11:15:33;14.10;86.50
42097;DHT22;27754;45.414;11.084;2022-11-09T11:18:23;14.20;86.20
42097;DHT22;27754;45.414;11.084;2022-11-09T11:21:15;14.20;85.90
42097;DHT22;27754;45.414;11.084;2022-11-09T11:24:18;14.30;85.50
42097;DHT22;27754;45.414;11.084;2022-11-09T11:30:13;14.50;84.90
42097;DHT22;27754;45.414;11.084;2022-11-09T11:33:00;14.50;84.70
42097;DHT22;27754;45.414;11.084;2022-11-09T11:35:59;14.60;84.60
42097;DHT22;27754;45.414;11.084;2022-11-09T11:38:51;14.80;83.70
42097;DHT22;27754;45.414;11.084;2022-11-09T11:45:13;14.90;83.50
42097;DHT22;27754;45.414;11.084;2022-11-09T11:54:23;14.60;83.30
42097;DHT22;27754;45.414;11.084;2022-11-09T12:00:17;14.60;83.90
42097;DHT22;27754;45.414;11.084;2022-11-09T12:03:29;14.40;83.50
42097;DHT22;27754;45.414;11.084;2022-11-09T12:06:41;14.40;84.10
42097;DHT22;27754;45.414;11.084;2022-11-09T12:09:44;14.40;84.10
42097;DHT22;27754;45.414;11.084;2022-11-09T12:24:25;14.20;85.00
42097;DHT22;27754;45.414;11.084;2022-11-09T12:40:04;14.00;86.00
42097;DHT22;27754;45.414;11.084;2022-11-09T12:42:52;14.00;86.00
42097;DHT22;27754;45.414;11.084;2022-11-09T12:45:40;14.00;86.10
42097;DHT22;27754;45.414;11.084;2022-11-09T12:48:31;14.00;86.20
42097;DHT22;27754;45.414;11.084;2022-11-09T12:51:17;14.00;86.20
42097;DHT22;27754;45.414;11.084;2022-11-09T12:54:07;14.00;86.00
42097;DHT22;27754;45.414;11.084;2022-11-09T12:57:10;14.00;86.30
42097;DHT22;27754;45.414;11.084;2022-11-09T12:59:59;14.00;86.40
42097;DHT22;27754;45.414;11.084;2022-11-09T13:02:56;13.90;86.70
42097;DHT22;27754;45.414;11.084;2022-11-09T13:05:43;13.90;86.80
42097;DHT22;27754;45.414;11.084;2022-11-09T13:08:32;13.90;87.00
42097;DHT22;27754;45.414;11.084;2022-11-09T13:12:14;14.00;87.20
42097;DHT22;27754;45.414;11.084;2022-11-09T13:14:32;14.00;87.20
42097;DHT22;27754;45.414;11.084;2022-11-09T13:23:41;14.00;87.80
42097;DHT22;27754;45.414;11.084;2022-11-09T13:32:28;14.00;86.90
42097;DHT22;27754;45.414;11.084;2022-11-09T13:36:13;14.00;86.30
42097;DHT22;27754;45.414;11.084;2022-11-09T13:39:28;13.90;85.80
42097;DHT22;27754;45.414;11.084;2022-11-09T13:42:26;13.90;85.40
42097;DHT22;27754;45.414;11.084;2022-11-09T13:45:42;13.90;84.80
42097;DHT22;27754;45.414;11.084;2022-11-09T13:48:48;13.90;84.90
42097;DHT22;27754;45.414;11.084;2022-11-09T13:54:32;13.90;85.30
42097;DHT22;27754;45.414;11.084;2022-11-09T13:57:18;13.90;85.60
42097;DHT22;27754;45.414;11.084;2022-11-09T14:00:09;13.90;85.40
42097;DHT22;27754;45.414;11.084;2022-11-09T14:03:11;14.00;85.70
42097;DHT22;27754;45.414;11.084;2022-11-09T14:06:01;13.90;85.80
42097;DHT22;27754;45.414;11.084;2022-11-09T14:08:47;13.90;85.90
42097;DHT22;27754;45.414;11.084;2022-11-09T14:11:49;13.90;86.00
42097;DHT22;27754;45.414;11.084;2022-11-09T14:15:00;13.90;86.10
42097;DHT22;27754;45.414;11.084;2022-11-09T14:21:39;13.90;86.40
42097;DHT22;27754;45.414;11.084;2022-11-09T14:24:28;13.90;86.60
42097;DHT22;27754;45.414;11.084;2022-11-09T14:27:19;13.90;86.60
42097;DHT22;27754;45.414;11.084;2022-11-09T14:30:20;13.80;86.20
42097;DHT22;27754;45.414;11.084;2022-11-09T14:33:35;13.70;86.50
42097;DHT22;27754;45.414;11.084;2022-11-09T14:36:20;13.70;86.80
42097;DHT22;27754;45.414;11.084;2022-11-09T14:39:24;13.70;87.20
42097;DHT22;27754;45.414;11.084;2022-11-09T14:42:17;13.60;87.50
42097;DHT22;27754;45.414;11.084;2022-11-09T14:45:03;13.60;87.80
42097;DHT22;27754;45.414;11.084;2022-11-09T14:47:54;13.60;88.00
42097;DHT22;27754;45.414;11.084;2022-11-09T14:50:40;13.60;88.00
42097;DHT22;27754;45.414;11.084;2022-11-09T14:53:32;13.60;88.10
42097;DHT22;27754;45.414;11.084;2022-11-09T14:56:19;13.50;88.10
42097;DHT22;27754;45.414;11.084;2022-11-09T14:59:13;13.50;88.30
42097;DHT22;27754;45.414;11.084;2022-11-09T15:02:06;13.50;88.10
42097;DHT22;27754;45.414;11.084;2022-11-09T15:05:01;13.40;88.10
42097;DHT22;27754;45.414;11.084;2022-11-09T15:07:47;13.50;88.20
42097;DHT22;27754;45.414;11.084;2022-11-09T15:10:33;13.50;88.30
42097;DHT22;27754;45.414;11.084;2022-11-09T15:13:36;13.50;88.40
42097;DHT22;27754;45.414;11.084;2022-11-09T15:16:26;13.40;88.50
42097;DHT22;27754;45.414;11.084;2022-11-09T15:19:46;13.40;88.60
42097;DHT22;27754;45.414;11.084;2022-11-09T15:28:28;13.40;89.00
42097;DHT22;27754;45.414;11.084;2022-11-09T15:31:15;13.30;89.10
42097;DHT22;27754;45.414;11.084;2022-11-09T15:34:19;13.30;89.40
42097;DHT22;27754;45.414;11.084;2022-11-09T15:37:28;13.20;89.50
42097;DHT22;27754;45.414;11.084;2022-11-09T15:40:17;13.20;89.60
42097;DHT22;27754;45.414;11.084;2022-11-09T15:43:03;13.20;89.60
42097;DHT22;27754;45.414;11.084;2022-11-09T15:45:49;13.20;89.80
42097;DHT22;27754;45.414;11.084;2022-11-09T15:48:34;13.10;89.60
42097;DHT22;27754;45.414;11.084;2022-11-09T15:51:20;13.10;89.60
42097;DHT22;27754;45.414;11.084;2022-11-09T15:54:06;13.00;89.10
42097;DHT22;27754;45.414;11.084;2022-11-09T15:56:51;13.00;87.80
42097;DHT22;27754;45.414;11.084;2022-11-09T15:59:37;12.90;87.90
42097;DHT22;27754;45.414;11.084;2022-11-09T16:02:22;12.80;88.20
42097;DHT22;27754;45.414;11.084;2022-11-09T16:05:08;12.80;88.50
42097;DHT22;27754;45.414;11.084;2022-11-09T16:07:54;12.70;88.70
42097;DHT22;27754;45.414;11.084;2022-11-09T16:10:40;12.70;88.70
42097;DHT22;27754;45.414;11.084;2022-11-09T16:13:26;12.60;89.00
42097;DHT22;27754;45.414;11.084;2022-11-09T16:16:13;12.60;89.10
42097;DHT22;27754;45.414;11.084;2022-11-09T16:18:59;12.60;89.50
42097;DHT22;27754;45.414;11.084;2022-11-09T16:21:44;12.60;89.30
42097;DHT22;27754;45.414;11.084;2022-11-09T16:24:30;12.60;88.80
42097;DHT22;27754;45.414;11.084;2022-11-09T16:27:16;12.50;88.20
42097;DHT22;27754;45.414;11.084;2022-11-09T16:30:22;12.40;88.30
42097;DHT22;27754;45.414;11.084;2022-11-09T16:33:08;12.40;88.70
42097;DHT22;27754;45.414;11.084;2022-11-09T16:35:55;12.50;89.20
42097;DHT22;27754;45.414;11.084;2022-11-09T16:38:43;12.60;89.40
42097;DHT22;27754;45.414;11.084;2022-11-09T16:41:29;12.50;89.80
42097;DHT22;27754;45.414;11.084;2022-11-09T16:44:18;12.60;89.80
42097;DHT22;27754;45.414;11.084;2022-11-09T16:47:06;12.60;90.00
42097;DHT22;27754;45.414;11.084;2022-11-09T16:49:52;12.60;90.20
42097;DHT22;27754;45.414;11.084;2022-11-09T16:52:38;12.60;90.40
42097;DHT22;27754;45.414;11.084;2022-11-09T16:55:24;12.70;90.50
42097;DHT22;27754;45.414;11.084;2022-11-09T16:58:09;12.60;90.60
42097;DHT22;27754;45.414;11.084;2022-11-09T17:00:55;12.60;90.60
42097;DHT22;27754;45.414;11.084;2022-11-09T17:03:56;12.60;90.80
42097;DHT22;27754;45.414;11.084;2022-11-09T17:06:42;12.60;90.90
42097;DHT22;27754;45.414;11.084;2022-11-09T17:09:32;12.60;91.00
42097;DHT22;27754;45.414;11.084;2022-11-09T17:12:17;12.60;91.10
42097;DHT22;27754;45.414;11.084;2022-11-09T17:15:03;12.50;91.30
42097;DHT22;27754;45.414;11.084;2022-11-09T17:17:49;12.50;91.30
42097;DHT22;27754;45.414;11.084;2022-11-09T17:20:45;12.50;91.40
42097;DHT22;27754;45.414;11.084;2022-11-09T17:23:31;12.50;91.50
42097;DHT22;27754;45.414;11.084;2022-11-09T17:26:18;12.50;91.60
42097;DHT22;27754;45.414;11.084;2022-11-09T17:29:05;12.50;91.80
42097;DHT22;27754;45.414;11.084;2022-11-09T17:31:51;12.60;91.90
42097;DHT22;27754;45.414;11.084;2022-11-09T17:34:36;12.50;91.80
42097;DHT22;27754;45.414;11.084;2022-11-09T17:37:22;12.50;91.80
42097;DHT22;27754;45.414;11.084;2022-11-09T17:40:08;12.50;91.80
42097;DHT22;27754;45.414;11.084;2022-11-09T17:42:54;12.50;91.80